YOP weather

Rainbow Lake Airport
Rainbow Lake, Alberta, Canada

Public forecast

Using degrees Celsius for public forecast. Weather courtesy of forecast.io.

Closest aviation weather report (METAR) to Rainbow Lake Airport

Closest report is High Level Airport, 70.7 nm (130.9 km) E. Retrieved 2020/02/23 13:00 UTC (15 minutes ago):

CYOJ 231300Z AUTO 26005KT 9SM CLR M08/M13 A2979 RMK SLP112

Closest aviation forecast (TAF) to Rainbow Lake Airport

Closest forecast is High Level Airport, 70.7 nm (130.9 km) E. Retrieved 2020/02/23 13:42 UTC (0 seconds ago):

TAF CYOJ 231238Z 2313/2401 VRB03KT P6SM SKC BECMG 2320/2322 36008KT RMK FCST BASED ON AUTO OBS NXT FCST BY 231900Z